sensor_id;sensor_type;location;lat;lon;timestamp;temperature;humidity
17208;DHT22;8720;48.488;9.202;2023-11-21T00:01:40;11.00;71.90
17208;DHT22;8720;48.488;9.202;2023-11-21T00:04:12;11.00;71.90
17208;DHT22;8720;48.488;9.202;2023-11-21T00:06:41;11.00;71.60
17208;DHT22;8720;48.488;9.202;2023-11-21T00:09:08;11.00;71.90
17208;DHT22;8720;48.488;9.202;2023-11-21T00:11:41;11.00;71.90
17208;DHT22;8720;48.488;9.202;2023-11-21T00:14:10;11.00;71.80
17208;DHT22;8720;48.488;9.202;2023-11-21T00:16:37;11.10;71.80
17208;DHT22;8720;48.488;9.202;2023-11-21T00:19:05;11.00;71.70
17208;DHT22;8720;48.488;9.202;2023-11-21T00:21:34;11.00;71.70
17208;DHT22;8720;48.488;9.202;2023-11-21T00:24:01;11.10;71.50
17208;DHT22;8720;48.488;9.202;2023-11-21T00:26:29;11.10;71.80
17208;DHT22;8720;48.488;9.202;2023-11-21T00:29:03;11.10;71.60
17208;DHT22;8720;48.488;9.202;2023-11-21T00:31:33;11.10;71.30
17208;DHT22;8720;48.488;9.202;2023-11-21T00:34:02;11.10;71.00
17208;DHT22;8720;48.488;9.202;2023-11-21T00:36:31;11.10;70.50
17208;DHT22;8720;48.488;9.202;2023-11-21T00:38:59;11.10;70.70
17208;DHT22;8720;48.488;9.202;2023-11-21T00:41:29;11.10;70.20
17208;DHT22;8720;48.488;9.202;2023-11-21T00:43:57;11.20;71.30
17208;DHT22;8720;48.488;9.202;2023-11-21T00:46:25;11.20;70.60
17208;DHT22;8720;48.488;9.202;2023-11-21T00:48:57;11.20;70.50
17208;DHT22;8720;48.488;9.202;2023-11-21T00:51:25;11.20;69.70
17208;DHT22;8720;48.488;9.202;2023-11-21T00:53:52;11.20;70.30
17208;DHT22;8720;48.488;9.202;2023-11-21T00:56:21;11.20;70.40
17208;DHT22;8720;48.488;9.202;2023-11-21T00:58:49;11.20;70.00
17208;DHT22;8720;48.488;9.202;2023-11-21T01:01:18;11.20;70.60
17208;DHT22;8720;48.488;9.202;2023-11-21T01:03:46;11.20;69.90
17208;DHT22;8720;48.488;9.202;2023-11-21T01:06:14;11.30;70.10
17208;DHT22;8720;48.488;9.202;2023-11-21T01:08:41;11.30;70.00
17208;DHT22;8720;48.488;9.202;2023-11-21T01:11:09;11.30;69.70
17208;DHT22;8720;48.488;9.202;2023-11-21T01:13:39;11.30;69.50
17208;DHT22;8720;48.488;9.202;2023-11-21T01:16:07;11.30;68.80
17208;DHT22;8720;48.488;9.202;2023-11-21T01:18:35;11.30;69.00
17208;DHT22;8720;48.488;9.202;2023-11-21T01:21:03;11.30;69.00
17208;DHT22;8720;48.488;9.202;2023-11-21T01:23:31;11.30;68.90
17208;DHT22;8720;48.488;9.202;2023-11-21T01:25:59;11.30;68.90
17208;DHT22;8720;48.488;9.202;2023-11-21T01:28:26;11.30;68.70
17208;DHT22;8720;48.488;9.202;2023-11-21T01:30:55;11.40;68.80
17208;DHT22;8720;48.488;9.202;2023-11-21T01:33:23;11.40;68.30
17208;DHT22;8720;48.488;9.202;2023-11-21T01:35:51;11.40;68.50
17208;DHT22;8720;48.488;9.202;2023-11-21T01:38:20;11.40;68.20
17208;DHT22;8720;48.488;9.202;2023-11-21T01:40:48;11.40;67.70
17208;DHT22;8720;48.488;9.202;2023-11-21T01:43:15;11.40;67.80
17208;DHT22;8720;48.488;9.202;2023-11-21T01:45:43;11.40;67.60
17208;DHT22;8720;48.488;9.202;2023-11-21T01:48:13;11.40;67.30
17208;DHT22;8720;48.488;9.202;2023-11-21T01:50:42;11.30;66.40
17208;DHT22;8720;48.488;9.202;2023-11-21T01:53:12;11.30;66.90
17208;DHT22;8720;48.488;9.202;2023-11-21T01:55:40;11.30;66.30
17208;DHT22;8720;48.488;9.202;2023-11-21T01:58:10;11.30;66.50
17208;DHT22;8720;48.488;9.202;2023-11-21T02:00:39;11.30;66.50
17208;DHT22;8720;48.488;9.202;2023-11-21T02:03:07;11.20;66.60
17208;DHT22;8720;48.488;9.202;2023-11-21T02:05:37;11.20;66.70
17208;DHT22;8720;48.488;9.202;2023-11-21T02:08:04;11.20;66.40
17208;DHT22;8720;48.488;9.202;2023-11-21T02:10:32;11.20;66.80
17208;DHT22;8720;48.488;9.202;2023-11-21T02:13:00;11.20;66.60
17208;DHT22;8720;48.488;9.202;2023-11-21T02:15:29;11.20;66.60
17208;DHT22;8720;48.488;9.202;2023-11-21T02:17:56;11.20;66.40
17208;DHT22;8720;48.488;9.202;2023-11-21T02:20:24;11.10;66.70
17208;DHT22;8720;48.488;9.202;2023-11-21T02:22:54;11.10;66.70
17208;DHT22;8720;48.488;9.202;2023-11-21T02:25:25;11.10;66.40
17208;DHT22;8720;48.488;9.202;2023-11-21T02:27:53;11.10;66.70
17208;DHT22;8720;48.488;9.202;2023-11-21T02:30:21;11.10;66.80
17208;DHT22;8720;48.488;9.202;2023-11-21T02:32:52;11.20;66.70
17208;DHT22;8720;48.488;9.202;2023-11-21T02:35:20;11.10;66.40
17208;DHT22;8720;48.488;9.202;2023-11-21T02:37:48;11.10;66.30
17208;DHT22;8720;48.488;9.202;2023-11-21T02:40:17;11.10;66.50
17208;DHT22;8720;48.488;9.202;2023-11-21T02:42:46;11.10;66.20
17208;DHT22;8720;48.488;9.202;2023-11-21T02:45:14;11.10;66.50
17208;DHT22;8720;48.488;9.202;2023-11-21T02:47:42;11.10;66.00
17208;DHT22;8720;48.488;9.202;2023-11-21T02:50:10;11.10;66.30
17208;DHT22;8720;48.488;9.202;2023-11-21T02:52:38;11.00;66.30
17208;DHT22;8720;48.488;9.202;2023-11-21T02:55:07;11.10;66.40
17208;DHT22;8720;48.488;9.202;2023-11-21T02:57:36;11.00;66.30
17208;DHT22;8720;48.488;9.202;2023-11-21T03:00:04;11.10;65.90
17208;DHT22;8720;48.488;9.202;2023-11-21T03:05:08;11.10;66.30
17208;DHT22;8720;48.488;9.202;2023-11-21T03:07:37;11.10;66.30
17208;DHT22;8720;48.488;9.202;2023-11-21T03:10:06;11.10;65.80
17208;DHT22;8720;48.488;9.202;2023-11-21T03:12:36;11.10;65.90
17208;DHT22;8720;48.488;9.202;2023-11-21T03:15:04;11.10;65.70
17208;DHT22;8720;48.488;9.202;2023-11-21T03:17:32;11.10;65.90
17208;DHT22;8720;48.488;9.202;2023-11-21T03:19:59;11.10;66.10
17208;DHT22;8720;48.488;9.202;2023-11-21T03:22:28;11.10;65.90
17208;DHT22;8720;48.488;9.202;2023-11-21T03:24:55;11.20;66.20
17208;DHT22;8720;48.488;9.202;2023-11-21T03:27:22;11.20;66.30
17208;DHT22;8720;48.488;9.202;2023-11-21T03:29:51;11.20;66.30
17208;DHT22;8720;48.488;9.202;2023-11-21T03:32:20;11.20;66.30
17208;DHT22;8720;48.488;9.202;2023-11-21T03:34:55;11.20;66.10
17208;DHT22;8720;48.488;9.202;2023-11-21T03:37:23;11.20;64.70
17208;DHT22;8720;48.488;9.202;2023-11-21T03:39:54;11.20;65.70
17208;DHT22;8720;48.488;9.202;2023-11-21T03:42:22;11.20;65.50
17208;DHT22;8720;48.488;9.202;2023-11-21T03:44:51;11.20;65.60
17208;DHT22;8720;48.488;9.202;2023-11-21T03:47:20;11.20;65.00
17208;DHT22;8720;48.488;9.202;2023-11-21T03:49:47;11.20;65.50
17208;DHT22;8720;48.488;9.202;2023-11-21T03:52:15;11.20;65.40
17208;DHT22;8720;48.488;9.202;2023-11-21T03:54:43;11.20;65.50
17208;DHT22;8720;48.488;9.202;2023-11-21T03:57:11;11.20;65.60
17208;DHT22;8720;48.488;9.202;2023-11-21T03:59:40;11.20;65.50
17208;DHT22;8720;48.488;9.202;2023-11-21T04:02:09;11.20;65.30
17208;DHT22;8720;48.488;9.202;2023-11-21T04:04:37;11.20;65.30
17208;DHT22;8720;48.488;9.202;2023-11-21T04:07:04;11.20;65.70
17208;DHT22;8720;48.488;9.202;2023-11-21T04:09:32;11.20;65.70
17208;DHT22;8720;48.488;9.202;2023-11-21T04:11:59;11.30;65.90
17208;DHT22;8720;48.488;9.202;2023-11-21T04:14:27;11.30;65.80
17208;DHT22;8720;48.488;9.202;2023-11-21T04:16:54;11.30;65.60
17208;DHT22;8720;48.488;9.202;2023-11-21T04:19:23;11.30;65.80
17208;DHT22;8720;48.488;9.202;2023-11-21T04:21:50;11.30;65.30
17208;DHT22;8720;48.488;9.202;2023-11-21T04:24:18;11.30;65.80
17208;DHT22;8720;48.488;9.202;2023-11-21T04:26:45;11.30;65.90
17208;DHT22;8720;48.488;9.202;2023-11-21T04:29:13;11.30;66.00
17208;DHT22;8720;48.488;9.202;2023-11-21T04:31:40;11.30;65.90
17208;DHT22;8720;48.488;9.202;2023-11-21T04:34:07;11.30;66.00
17208;DHT22;8720;48.488;9.202;2023-11-21T04:36:36;11.30;66.00
17208;DHT22;8720;48.488;9.202;2023-11-21T04:39:03;11.30;65.50
17208;DHT22;8720;48.488;9.202;2023-11-21T04:41:32;11.30;66.10
17208;DHT22;8720;48.488;9.202;2023-11-21T04:43:59;11.30;66.10
17208;DHT22;8720;48.488;9.202;2023-11-21T04:46:27;11.30;66.00
17208;DHT22;8720;48.488;9.202;2023-11-21T04:48:54;11.30;66.10
17208;DHT22;8720;48.488;9.202;2023-11-21T04:51:22;11.40;66.10
17208;DHT22;8720;48.488;9.202;2023-11-21T04:53:51;11.30;66.00
17208;DHT22;8720;48.488;9.202;2023-11-21T04:56:18;11.30;65.50
17208;DHT22;8720;48.488;9.202;2023-11-21T04:58:45;11.30;66.10
17208;DHT22;8720;48.488;9.202;2023-11-21T05:01:13;11.40;66.10
17208;DHT22;8720;48.488;9.202;2023-11-21T05:03:40;11.40;66.10
17208;DHT22;8720;48.488;9.202;2023-11-21T05:06:09;11.40;66.10
17208;DHT22;8720;48.488;9.202;2023-11-21T05:08:37;11.30;65.70
17208;DHT22;8720;48.488;9.202;2023-11-21T05:11:06;11.40;66.30
17208;DHT22;8720;48.488;9.202;2023-11-21T05:13:36;11.40;65.70
17208;DHT22;8720;48.488;9.202;2023-11-21T05:16:05;11.40;66.10
17208;DHT22;8720;48.488;9.202;2023-11-21T05:18:33;11.40;66.10
17208;DHT22;8720;48.488;9.202;2023-11-21T05:21:00;11.40;66.30
17208;DHT22;8720;48.488;9.202;2023-11-21T05:23:28;11.40;66.40
17208;DHT22;8720;48.488;9.202;2023-11-21T05:25:55;11.40;66.60
17208;DHT22;8720;48.488;9.202;2023-11-21T05:28:24;11.40;66.70
17208;DHT22;8720;48.488;9.202;2023-11-21T05:30:52;11.40;66.40
17208;DHT22;8720;48.488;9.202;2023-11-21T05:33:20;11.40;66.90
17208;DHT22;8720;48.488;9.202;2023-11-21T05:35:47;11.40;66.90
17208;DHT22;8720;48.488;9.202;2023-11-21T05:38:15;11.30;67.00
17208;DHT22;8720;48.488;9.202;2023-11-21T05:40:42;11.40;67.30
17208;DHT22;8720;48.488;9.202;2023-11-21T05:43:10;11.30;67.00
17208;DHT22;8720;48.488;9.202;2023-11-21T05:45:38;11.30;67.10
17208;DHT22;8720;48.488;9.202;2023-11-21T05:48:06;11.30;66.90
17208;DHT22;8720;48.488;9.202;2023-11-21T05:50:33;11.30;67.20
17208;DHT22;8720;48.488;9.202;2023-11-21T05:53:01;11.30;67.10
17208;DHT22;8720;48.488;9.202;2023-11-21T05:55:29;11.30;67.10
17208;DHT22;8720;48.488;9.202;2023-11-21T05:57:55;11.30;67.30
17208;DHT22;8720;48.488;9.202;2023-11-21T06:00:23;11.30;67.30
17208;DHT22;8720;48.488;9.202;2023-11-21T06:02:53;11.30;67.20
17208;DHT22;8720;48.488;9.202;2023-11-21T06:05:22;11.20;66.90
17208;DHT22;8720;48.488;9.202;2023-11-21T06:07:51;11.20;67.00
17208;DHT22;8720;48.488;9.202;2023-11-21T06:10:20;11.20;67.40
17208;DHT22;8720;48.488;9.202;2023-11-21T06:12:49;11.20;67.10
17208;DHT22;8720;48.488;9.202;2023-11-21T06:15:17;11.20;67.50
17208;DHT22;8720;48.488;9.202;2023-11-21T06:17:46;11.20;67.60
17208;DHT22;8720;48.488;9.202;2023-11-21T06:20:19;11.20;67.80
17208;DHT22;8720;48.488;9.202;2023-11-21T06:22:49;11.20;67.40
17208;DHT22;8720;48.488;9.202;2023-11-21T06:25:16;11.20;67.50
17208;DHT22;8720;48.488;9.202;2023-11-21T06:27:45;11.20;67.60
17208;DHT22;8720;48.488;9.202;2023-11-21T06:30:14;11.10;67.20
17208;DHT22;8720;48.488;9.202;2023-11-21T06:32:43;11.10;67.30
17208;DHT22;8720;48.488;9.202;2023-11-21T06:35:12;11.10;67.40
17208;DHT22;8720;48.488;9.202;2023-11-21T06:37:42;11.10;67.50
17208;DHT22;8720;48.488;9.202;2023-11-21T06:40:13;11.00;67.20
17208;DHT22;8720;48.488;9.202;2023-11-21T06:42:41;10.90;67.30
17208;DHT22;8720;48.488;9.202;2023-11-21T06:45:10;10.90;67.50
17208;DHT22;8720;48.488;9.202;2023-11-21T06:47:38;10.90;67.60
17208;DHT22;8720;48.488;9.202;2023-11-21T06:50:06;10.90;67.60
17208;DHT22;8720;48.488;9.202;2023-11-21T06:52:33;11.00;67.60
17208;DHT22;8720;48.488;9.202;2023-11-21T06:55:03;11.00;67.70
17208;DHT22;8720;48.488;9.202;2023-11-21T06:57:34;11.00;67.70
17208;DHT22;8720;48.488;9.202;2023-11-21T07:00:01;11.00;68.20
17208;DHT22;8720;48.488;9.202;2023-11-21T07:02:29;11.00;68.20
17208;DHT22;8720;48.488;9.202;2023-11-21T07:04:56;11.10;68.40
17208;DHT22;8720;48.488;9.202;2023-11-21T07:07:24;11.10;68.60
17208;DHT22;8720;48.488;9.202;2023-11-21T07:09:51;11.10;68.50
17208;DHT22;8720;48.488;9.202;2023-11-21T07:12:20;11.10;68.30
17208;DHT22;8720;48.488;9.202;2023-11-21T07:14:49;11.20;68.00
17208;DHT22;8720;48.488;9.202;2023-11-21T07:17:16;11.20;68.20
17208;DHT22;8720;48.488;9.202;2023-11-21T07:19:44;11.20;68.10
17208;DHT22;8720;48.488;9.202;2023-11-21T07:22:11;11.20;67.90
17208;DHT22;8720;48.488;9.202;2023-11-21T07:24:39;11.30;67.80
17208;DHT22;8720;48.488;9.202;2023-11-21T07:27:07;11.20;67.20
17208;DHT22;8720;48.488;9.202;2023-11-21T07:29:36;11.20;67.40
17208;DHT22;8720;48.488;9.202;2023-11-21T07:32:03;11.30;67.30
17208;DHT22;8720;48.488;9.202;2023-11-21T07:34:31;11.40;67.80
17208;DHT22;8720;48.488;9.202;2023-11-21T07:36:58;11.40;67.90
17208;DHT22;8720;48.488;9.202;2023-11-21T07:39:26;11.50;67.90
17208;DHT22;8720;48.488;9.202;2023-11-21T07:41:53;11.50;67.80
17208;DHT22;8720;48.488;9.202;2023-11-21T07:44:20;11.50;67.80
17208;DHT22;8720;48.488;9.202;2023-11-21T07:46:49;11.60;67.70
17208;DHT22;8720;48.488;9.202;2023-11-21T07:49:16;11.60;67.10
17208;DHT22;8720;48.488;9.202;2023-11-21T07:51:46;11.60;67.50
17208;DHT22;8720;48.488;9.202;2023-11-21T07:54:13;11.70;67.50
17208;DHT22;8720;48.488;9.202;2023-11-21T07:56:41;11.70;67.40
17208;DHT22;8720;48.488;9.202;2023-11-21T07:59:09;11.80;67.40
17208;DHT22;8720;48.488;9.202;2023-11-21T08:01:36;11.80;67.30
17208;DHT22;8720;48.488;9.202;2023-11-21T08:04:05;11.80;67.40
17208;DHT22;8720;48.488;9.202;2023-11-21T08:06:33;11.90;66.60
17208;DHT22;8720;48.488;9.202;2023-11-21T08:09:01;11.90;67.20
17208;DHT22;8720;48.488;9.202;2023-11-21T08:11:28;11.90;67.20
17208;DHT22;8720;48.488;9.202;2023-11-21T08:13:58;12.00;67.20
17208;DHT22;8720;48.488;9.202;2023-11-21T08:16:25;12.00;67.00
17208;DHT22;8720;48.488;9.202;2023-11-21T08:18:53;12.00;66.90
17208;DHT22;8720;48.488;9.202;2023-11-21T08:21:24;12.10;66.80
17208;DHT22;8720;48.488;9.202;2023-11-21T08:23:54;12.00;66.40
17208;DHT22;8720;48.488;9.202;2023-11-21T08:26:22;12.10;66.80
17208;DHT22;8720;48.488;9.202;2023-11-21T08:28:50;12.10;66.80
17208;DHT22;8720;48.488;9.202;2023-11-21T08:31:24;12.10;66.60
17208;DHT22;8720;48.488;9.202;2023-11-21T08:33:52;12.10;65.70
17208;DHT22;8720;48.488;9.202;2023-11-21T08:36:20;12.20;66.90
17208;DHT22;8720;48.488;9.202;2023-11-21T08:38:50;12.20;66.90
17208;DHT22;8720;48.488;9.202;2023-11-21T08:41:18;12.20;66.40
17208;DHT22;8720;48.488;9.202;2023-11-21T08:43:47;12.30;66.90
17208;DHT22;8720;48.488;9.202;2023-11-21T08:46:15;12.20;66.60
17208;DHT22;8720;48.488;9.202;2023-11-21T08:48:43;12.30;67.10
17208;DHT22;8720;48.488;9.202;2023-11-21T08:51:11;12.30;67.10
17208;DHT22;8720;48.488;9.202;2023-11-21T08:53:39;12.40;67.20
17208;DHT22;8720;48.488;9.202;2023-11-21T08:56:12;12.40;67.20
17208;DHT22;8720;48.488;9.202;2023-11-21T08:58:39;12.40;65.90
17208;DHT22;8720;48.488;9.202;2023-11-21T09:01:07;12.40;66.90
17208;DHT22;8720;48.488;9.202;2023-11-21T09:03:34;12.40;67.10
17208;DHT22;8720;48.488;9.202;2023-11-21T09:06:02;12.50;67.30
17208;DHT22;8720;48.488;9.202;2023-11-21T09:08:30;12.50;67.20
17208;DHT22;8720;48.488;9.202;2023-11-21T09:10:57;12.50;67.10
17208;DHT22;8720;48.488;9.202;2023-11-21T09:13:26;12.50;66.90
17208;DHT22;8720;48.488;9.202;2023-11-21T09:15:53;12.50;66.50
17208;DHT22;8720;48.488;9.202;2023-11-21T09:18:21;12.50;67.20
17208;DHT22;8720;48.488;9.202;2023-11-21T09:20:49;12.60;67.50
17208;DHT22;8720;48.488;9.202;2023-11-21T09:23:16;12.60;67.40
17208;DHT22;8720;48.488;9.202;2023-11-21T09:25:43;12.70;67.60
17208;DHT22;8720;48.488;9.202;2023-11-21T09:28:13;12.70;67.40
17208;DHT22;8720;48.488;9.202;2023-11-21T09:30:42;12.80;67.10
17208;DHT22;8720;48.488;9.202;2023-11-21T09:33:10;12.90;66.30
17208;DHT22;8720;48.488;9.202;2023-11-21T09:35:37;12.90;66.30
17208;DHT22;8720;48.488;9.202;2023-11-21T09:38:05;12.90;65.90
17208;DHT22;8720;48.488;9.202;2023-11-21T09:40:35;12.90;66.20
17208;DHT22;8720;48.488;9.202;2023-11-21T09:43:07;12.90;65.50
17208;DHT22;8720;48.488;9.202;2023-11-21T09:45:45;12.90;64.80
17208;DHT22;8720;48.488;9.202;2023-11-21T09:48:17;12.90;64.50
17208;DHT22;8720;48.488;9.202;2023-11-21T09:50:48;12.90;65.30
17208;DHT22;8720;48.488;9.202;2023-11-21T09:53:18;13.00;65.70
17208;DHT22;8720;48.488;9.202;2023-11-21T09:55:48;13.00;65.50
17208;DHT22;8720;48.488;9.202;2023-11-21T09:58:18;13.00;65.20
17208;DHT22;8720;48.488;9.202;2023-11-21T10:00:56;13.10;65.50
17208;DHT22;8720;48.488;9.202;2023-11-21T10:03:26;13.10;63.60
17208;DHT22;8720;48.488;9.202;2023-11-21T10:05:59;13.10;65.50
17208;DHT22;8720;48.488;9.202;2023-11-21T10:08:29;13.10;63.90
17208;DHT22;8720;48.488;9.202;2023-11-21T10:10:57;13.20;64.30
17208;DHT22;8720;48.488;9.202;2023-11-21T10:13:26;13.20;64.60
17208;DHT22;8720;48.488;9.202;2023-11-21T10:16:00;13.20;64.90
17208;DHT22;8720;48.488;9.202;2023-11-21T10:18:32;13.20;64.30
17208;DHT22;8720;48.488;9.202;2023-11-21T10:21:01;13.30;64.70
17208;DHT22;8720;48.488;9.202;2023-11-21T10:23:29;13.30;64.90
17208;DHT22;8720;48.488;9.202;2023-11-21T10:25:58;13.30;64.90
17208;DHT22;8720;48.488;9.202;2023-11-21T10:28:27;13.30;64.40
17208;DHT22;8720;48.488;9.202;2023-11-21T10:30:54;13.20;64.70
17208;DHT22;8720;48.488;9.202;2023-11-21T10:33:28;13.20;65.00
17208;DHT22;8720;48.488;9.202;2023-11-21T10:35:56;13.20;64.30
17208;DHT22;8720;48.488;9.202;2023-11-21T10:38:23;13.10;65.40
17208;DHT22;8720;48.488;9.202;2023-11-21T10:40:53;13.10;65.70
17208;DHT22;8720;48.488;9.202;2023-11-21T10:43:24;13.10;65.80
17208;DHT22;8720;48.488;9.202;2023-11-21T10:45:53;13.00;65.00
17208;DHT22;8720;48.488;9.202;2023-11-21T10:48:25;13.00;65.70
17208;DHT22;8720;48.488;9.202;2023-11-21T10:50:55;13.00;65.70
17208;DHT22;8720;48.488;9.202;2023-11-21T10:53:28;12.90;64.80
17208;DHT22;8720;48.488;9.202;2023-11-21T10:56:02;12.90;64.60
17208;DHT22;8720;48.488;9.202;2023-11-21T10:58:34;12.90;64.80
17208;DHT22;8720;48.488;9.202;2023-11-21T11:01:06;12.90;65.40
17208;DHT22;8720;48.488;9.202;2023-11-21T11:03:37;12.80;65.30
17208;DHT22;8720;48.488;9.202;2023-11-21T11:06:07;12.90;65.90
17208;DHT22;8720;48.488;9.202;2023-11-21T11:08:37;12.80;65.50
17208;DHT22;8720;48.488;9.202;2023-11-21T11:11:05;12.80;66.00
17208;DHT22;8720;48.488;9.202;2023-11-21T11:13:35;12.80;66.20
17208;DHT22;8720;48.488;9.202;2023-11-21T11:16:05;12.80;66.40
17208;DHT22;8720;48.488;9.202;2023-11-21T11:18:36;12.80;66.50
17208;DHT22;8720;48.488;9.202;2023-11-21T11:21:16;12.80;66.80
17208;DHT22;8720;48.488;9.202;2023-11-21T11:24:07;12.80;65.70
17208;DHT22;8720;48.488;9.202;2023-11-21T11:26:50;12.80;65.40
17208;DHT22;8720;48.488;9.202;2023-11-21T11:29:30;12.80;66.20
17208;DHT22;8720;48.488;9.202;2023-11-21T11:32:11;12.80;66.10
17208;DHT22;8720;48.488;9.202;2023-11-21T11:34:54;12.90;66.20
17208;DHT22;8720;48.488;9.202;2023-11-21T11:37:30;12.90;66.20
17208;DHT22;8720;48.488;9.202;2023-11-21T11:39:58;12.90;66.70
17208;DHT22;8720;48.488;9.202;2023-11-21T11:42:27;12.90;66.80
17208;DHT22;8720;48.488;9.202;2023-11-21T11:44:55;13.00;67.40
17208;DHT22;8720;48.488;9.202;2023-11-21T11:47:24;13.00;67.50
17208;DHT22;8720;48.488;9.202;2023-11-21T11:50:04;13.00;67.30
17208;DHT22;8720;48.488;9.202;2023-11-21T11:52:39;13.10;65.90
17208;DHT22;8720;48.488;9.202;2023-11-21T11:55:10;13.20;66.90
17208;DHT22;8720;48.488;9.202;2023-11-21T11:57:39;13.20;66.90
17208;DHT22;8720;48.488;9.202;2023-11-21T12:00:13;13.20;67.00
17208;DHT22;8720;48.488;9.202;2023-11-21T12:02:47;13.20;66.10
17208;DHT22;8720;48.488;9.202;2023-11-21T12:05:16;13.20;66.60
17208;DHT22;8720;48.488;9.202;2023-11-21T12:07:51;13.20;66.40
17208;DHT22;8720;48.488;9.202;2023-11-21T12:10:20;13.10;65.80
17208;DHT22;8720;48.488;9.202;2023-11-21T12:12:51;13.00;66.50
17208;DHT22;8720;48.488;9.202;2023-11-21T12:15:20;13.00;66.90
17208;DHT22;8720;48.488;9.202;2023-11-21T12:17:49;12.90;67.10
17208;DHT22;8720;48.488;9.202;2023-11-21T12:20:19;12.90;67.30
17208;DHT22;8720;48.488;9.202;2023-11-21T12:22:49;12.90;67.60
17208;DHT22;8720;48.488;9.202;2023-11-21T12:25:19;12.80;67.70
17208;DHT22;8720;48.488;9.202;2023-11-21T12:27:51;12.80;68.10
17208;DHT22;8720;48.488;9.202;2023-11-21T12:30:21;12.70;67.90
17208;DHT22;8720;48.488;9.202;2023-11-21T12:32:51;12.70;67.90
17208;DHT22;8720;48.488;9.202;2023-11-21T12:35:21;12.70;67.90
17208;DHT22;8720;48.488;9.202;2023-11-21T12:37:52;12.60;68.00
17208;DHT22;8720;48.488;9.202;2023-11-21T12:40:23;12.60;68.00
17208;DHT22;8720;48.488;9.202;2023-11-21T12:42:52;12.60;68.40
17208;DHT22;8720;48.488;9.202;2023-11-21T12:45:22;12.60;68.30
17208;DHT22;8720;48.488;9.202;2023-11-21T12:47:55;12.60;68.40
17208;DHT22;8720;48.488;9.202;2023-11-21T12:50:27;12.50;68.00
17208;DHT22;8720;48.488;9.202;2023-11-21T12:53:00;12.50;68.60
17208;DHT22;8720;48.488;9.202;2023-11-21T12:55:31;12.50;68.30
17208;DHT22;8720;48.488;9.202;2023-11-21T12:58:03;12.50;69.00
17208;DHT22;8720;48.488;9.202;2023-11-21T13:00:36;12.50;68.90
17208;DHT22;8720;48.488;9.202;2023-11-21T13:03:06;12.40;69.00
17208;DHT22;8720;48.488;9.202;2023-11-21T13:05:38;12.40;69.10
17208;DHT22;8720;48.488;9.202;2023-11-21T13:08:10;12.40;68.90
17208;DHT22;8720;48.488;9.202;2023-11-21T13:10:40;12.40;69.00
17208;DHT22;8720;48.488;9.202;2023-11-21T13:13:11;12.40;69.40
17208;DHT22;8720;48.488;9.202;2023-11-21T13:15:48;12.40;69.30
17208;DHT22;8720;48.488;9.202;2023-11-21T13:18:17;12.30;69.00
17208;DHT22;8720;48.488;9.202;2023-11-21T13:20:47;12.30;69.90
17208;DHT22;8720;48.488;9.202;2023-11-21T13:23:17;12.30;70.10
17208;DHT22;8720;48.488;9.202;2023-11-21T13:25:44;12.30;69.80
17208;DHT22;8720;48.488;9.202;2023-11-21T13:28:14;12.30;70.40
17208;DHT22;8720;48.488;9.202;2023-11-21T13:30:42;12.30;70.40
17208;DHT22;8720;48.488;9.202;2023-11-21T13:33:10;12.30;70.50
17208;DHT22;8720;48.488;9.202;2023-11-21T13:35:44;12.30;70.70
17208;DHT22;8720;48.488;9.202;2023-11-21T13:38:15;12.40;70.70
17208;DHT22;8720;48.488;9.202;2023-11-21T13:40:50;12.40;70.60
17208;DHT22;8720;48.488;9.202;2023-11-21T13:43:22;12.40;70.60
17208;DHT22;8720;48.488;9.202;2023-11-21T13:45:52;12.40;70.90
17208;DHT22;8720;48.488;9.202;2023-11-21T13:48:26;12.50;71.30
17208;DHT22;8720;48.488;9.202;2023-11-21T13:51:01;12.50;71.10
17208;DHT22;8720;48.488;9.202;2023-11-21T13:53:40;12.50;70.60
17208;DHT22;8720;48.488;9.202;2023-11-21T13:56:08;12.50;70.50
17208;DHT22;8720;48.488;9.202;2023-11-21T13:58:36;12.50;70.40
17208;DHT22;8720;48.488;9.202;2023-11-21T14:01:11;12.60;70.30
17208;DHT22;8720;48.488;9.202;2023-11-21T14:03:58;12.60;70.40
17208;DHT22;8720;48.488;9.202;2023-11-21T14:06:34;12.50;70.40
17208;DHT22;8720;48.488;9.202;2023-11-21T14:09:15;12.60;70.30
17208;DHT22;8720;48.488;9.202;2023-11-21T14:11:51;12.50;69.80
17208;DHT22;8720;48.488;9.202;2023-11-21T14:14:23;12.50;70.00
17208;DHT22;8720;48.488;9.202;2023-11-21T14:16:52;12.50;70.70
17208;DHT22;8720;48.488;9.202;2023-11-21T14:19:22;12.50;70.70
17208;DHT22;8720;48.488;9.202;2023-11-21T14:21:53;12.50;70.40
17208;DHT22;8720;48.488;9.202;2023-11-21T14:24:22;12.50;70.30
17208;DHT22;8720;48.488;9.202;2023-11-21T14:26:51;12.50;69.90
17208;DHT22;8720;48.488;9.202;2023-11-21T14:29:20;12.40;70.40
17208;DHT22;8720;48.488;9.202;2023-11-21T14:31:49;12.50;70.60
17208;DHT22;8720;48.488;9.202;2023-11-21T14:34:19;12.50;70.60
17208;DHT22;8720;48.488;9.202;2023-11-21T14:36:47;12.40;70.60
17208;DHT22;8720;48.488;9.202;2023-11-21T14:39:15;12.40;70.60
17208;DHT22;8720;48.488;9.202;2023-11-21T14:41:50;12.50;70.80
17208;DHT22;8720;48.488;9.202;2023-11-21T14:44:18;12.50;70.40
17208;DHT22;8720;48.488;9.202;2023-11-21T14:46:47;12.40;70.80
17208;DHT22;8720;48.488;9.202;2023-11-21T14:49:17;12.40;70.70
17208;DHT22;8720;48.488;9.202;2023-11-21T14:51:47;12.40;70.40
17208;DHT22;8720;48.488;9.202;2023-11-21T14:54:27;12.40;70.60
17208;DHT22;8720;48.488;9.202;2023-11-21T14:57:08;12.40;70.70
17208;DHT22;8720;48.488;9.202;2023-11-21T14:59:42;12.40;70.80
17208;DHT22;8720;48.488;9.202;2023-11-21T15:02:10;12.40;71.30
17208;DHT22;8720;48.488;9.202;2023-11-21T15:04:42;12.40;71.30
17208;DHT22;8720;48.488;9.202;2023-11-21T15:07:10;12.40;71.00
17208;DHT22;8720;48.488;9.202;2023-11-21T15:09:37;12.40;71.10
17208;DHT22;8720;48.488;9.202;2023-11-21T15:12:11;12.40;71.30
17208;DHT22;8720;48.488;9.202;2023-11-21T15:14:42;12.40;70.90
17208;DHT22;8720;48.488;9.202;2023-11-21T15:17:11;12.30;70.90
17208;DHT22;8720;48.488;9.202;2023-11-21T15:19:42;12.30;70.90
17208;DHT22;8720;48.488;9.202;2023-11-21T15:22:11;12.30;70.60
17208;DHT22;8720;48.488;9.202;2023-11-21T15:24:41;12.20;71.20
17208;DHT22;8720;48.488;9.202;2023-11-21T15:27:14;12.20;70.40
17208;DHT22;8720;48.488;9.202;2023-11-21T15:29:42;12.10;70.10
17208;DHT22;8720;48.488;9.202;2023-11-21T15:32:10;12.00;70.70
17208;DHT22;8720;48.488;9.202;2023-11-21T15:34:39;12.00;70.80
17208;DHT22;8720;48.488;9.202;2023-11-21T15:37:08;11.90;71.40
17208;DHT22;8720;48.488;9.202;2023-11-21T15:39:37;11.80;70.60
17208;DHT22;8720;48.488;9.202;2023-11-21T15:42:05;11.80;70.90
17208;DHT22;8720;48.488;9.202;2023-11-21T15:44:37;11.70;71.10
17208;DHT22;8720;48.488;9.202;2023-11-21T15:47:06;11.70;71.10
17208;DHT22;8720;48.488;9.202;2023-11-21T15:49:34;11.60;71.40
17208;DHT22;8720;48.488;9.202;2023-11-21T15:52:03;11.60;71.70
17208;DHT22;8720;48.488;9.202;2023-11-21T15:54:32;11.50;71.90
17208;DHT22;8720;48.488;9.202;2023-11-21T15:57:01;11.50;71.90
17208;DHT22;8720;48.488;9.202;2023-11-21T15:59:30;11.40;72.10
17208;DHT22;8720;48.488;9.202;2023-11-21T16:02:01;11.40;72.30